Time;durP1;ratioP1;P1;durP2;ratioP2;P2;SDS_P1;SDS_P2;PMS_P1;PMS_P2;Temp;Humidity;BMP_temperature;BMP_pressure;BME280_temperature;BME280_humidity;BME280_pressure;Samples;Min_cycle;Max_cycle;Signal;HPM_P1;HPM_P2
2021/11/29 00:02:11;;;;;;;2.73;1.90;;;;;;;-5.59;69.70;100838.06;4860635;29;20061;-61
2021/11/29 00:04:37;;;;;;;1.90;1.80;;;;;;;-5.68;70.42;100845.31;4860809;29;20068;-60
2021/11/29 00:07:03;;;;;;;2.20;2.10;;;;;;;-5.68;70.53;100854.84;4860191;29;20490;-59
2021/11/29 00:09:28;;;;;;;2.23;1.80;;;;;;;-5.82;71.10;100841.53;4860307;29;20467;-60
2021/11/29 00:11:54;;;;;;;2.30;1.93;;;;;;;-5.78;71.83;100858.66;4859662;29;20044;-62
2021/11/29 00:14:19;;;;;;;2.00;1.90;;;;;;;-5.80;71.14;100866.50;4859781;29;20037;-61
2021/11/29 00:16:45;;;;;;;2.20;2.10;;;;;;;-5.86;71.74;100861.56;4859840;29;20490;-62
2021/11/29 00:19:11;;;;;;;2.17;1.97;;;;;;;-5.79;71.86;100873.38;4860113;29;20422;-63
2021/11/29 00:21:36;;;;;;;2.50;2.30;;;;;;;-5.84;71.03;100858.91;4859925;29;20045;-61
2021/11/29 00:24:04;;;;;;;2.00;1.80;;;;;;;-5.83;71.43;100883.94;4859747;29;20501;-60
2021/11/29 00:26:29;;;;;;;2.17;2.08;;;;;;;-5.87;71.67;100879.75;4843413;29;20439;-60
2021/11/29 00:28:55;;;;;;;2.30;2.10;;;;;;;-5.91;71.80;100893.78;4864774;29;20044;-60
2021/11/29 00:31:21;;;;;;;2.60;2.40;;;;;;;-6.15;71.54;100857.44;4866763;29;20061;-62
2021/11/29 00:33:47;;;;;;;2.53;2.33;;;;;;;-5.99;71.77;100907.88;4849503;29;20087;-60
2021/11/29 00:36:14;;;;;;;2.50;2.30;;;;;;;-6.09;72.32;100897.84;4865724;29;20052;-60
2021/11/29 00:38:41;;;;;;;1.98;1.88;;;;;;;-6.18;72.22;100896.44;4866222;29;20098;-60
2021/11/29 00:41:07;;;;;;;2.00;1.90;;;;;;;-6.36;72.21;100859.06;4865775;29;20033;-61
2021/11/29 00:43:32;;;;;;;3.97;1.87;;;;;;;-6.17;73.15;100894.69;4866209;29;20051;-59
2021/11/29 00:45:58;;;;;;;1.97;1.87;;;;;;;-6.23;72.60;100887.97;4865975;29;20042;-63
2021/11/29 00:48:24;;;;;;;1.97;1.83;;;;;;;-6.09;71.61;100900.44;4866711;29;20037;-64
2021/11/29 00:50:49;;;;;;;3.73;2.00;;;;;;;-6.28;71.57;100879.53;4866413;29;20073;-61
2021/11/29 00:53:15;;;;;;;2.27;2.07;;;;;;;-6.21;72.89;100896.56;4849624;29;20045;-64
2021/11/29 00:55:41;;;;;;;1.90;1.80;;;;;;;-6.58;72.30;100840.81;4866480;29;20387;-63
2021/11/29 00:58:07;;;;;;;2.10;2.00;;;;;;;-6.51;71.88;100858.75;4866477;29;20049;-63
2021/11/29 01:00:35;;;;;;;2.17;2.08;;;;;;;-6.28;71.93;100910.63;4866659;29;20041;-63
2021/11/29 01:03:03;;;;;;;2.15;2.05;;;;;;;-6.21;71.69;100911.25;4865657;29;20065;-63
2021/11/29 01:05:30;;;;;;;2.05;1.88;;;;;;;-6.34;72.02;100884.94;4864500;29;20505;-60
2021/11/29 01:07:56;;;;;;;3.40;2.33;;;;;;;-6.35;72.27;100893.59;4865810;29;20125;-61
2021/11/29 01:10:25;;;;;;;2.03;1.92;;;;;;;-6.41;71.49;100893.78;4865380;29;20057;-63
2021/11/29 01:12:51;;;;;;;;;;;;;;;-6.28;71.63;100908.03;4865998;29;20045;-61
2021/11/29 01:15:19;;;;;;;2.83;2.63;;;;;;;-6.45;71.95;100879.25;4865784;29;19976;-62
2021/11/29 01:17:45;;;;;;;2.70;2.25;;;;;;;-6.44;72.62;100892.16;4865805;29;20089;-62
2021/11/29 01:20:12;;;;;;;2.87;2.67;;;;;;;-6.49;73.03;100881.09;4865808;29;20073;-60
2021/11/29 01:22:38;;;;;;;2.55;2.25;;;;;;;-6.51;72.47;100874.28;4865431;29;20293;-62
2021/11/29 01:25:05;;;;;;;4.05;2.50;;;;;;;-6.40;72.68;100891.16;4865195;29;20045;-61
2021/11/29 01:27:30;;;;;;;4.53;2.80;;;;;;;-6.56;72.72;100844.19;4865597;29;20135;-61
2021/11/29 01:29:56;;;;;;;3.87;2.97;;;;;;;-6.42;72.63;100866.19;4865501;29;20504;-60
2021/11/29 01:32:22;;;;;;;3.73;3.00;;;;;;;-6.45;72.71;100848.16;4865548;29;20033;-61
2021/11/29 01:34:47;;;;;;;2.97;2.77;;;;;;;-6.33;72.50;100866.72;4865471;29;20085;-61
2021/11/29 01:37:13;;;;;;;3.20;2.53;;;;;;;-6.46;73.72;100849.91;4865259;29;20053;-60
2021/11/29 01:39:38;;;;;;;2.43;2.23;;;;;;;-6.49;72.30;100841.41;4864729;29;20038;-62
2021/11/29 01:42:07;;;;;;;3.20;2.07;;;;;;;-6.46;73.70;100844.72;4862056;29;20549;-62
2021/11/29 01:44:33;;;;;;;2.67;2.47;;;;;;;-6.42;72.03;100867.03;4862642;29;20042;-63
2021/11/29 01:47:00;;;;;;;2.97;2.38;;;;;;;-6.35;72.43;100875.47;4862153;29;20048;-59
2021/11/29 01:49:28;;;;;;;2.47;2.28;;;;;;;-6.38;72.09;100883.31;4862570;29;20088;-62
2021/11/29 01:51:54;;;;;;;2.70;2.50;;;;;;;-6.44;72.38;100870.56;4862402;29;20496;-62
2021/11/29 01:54:19;;;;;;;2.37;1.90;;;;;;;-6.39;72.47;100884.22;4862224;29;20056;-61
2021/11/29 01:56:46;;;;;;;2.40;2.20;;;;;;;-6.49;72.31;100849.16;4862036;29;20041;-62
2021/11/29 01:59:12;;;;;;;3.20;2.70;;;;;;;-6.40;72.76;100854.88;4861781;29;20041;-61
2021/11/29 02:01:38;;;;;;;2.60;2.40;;;;;;;-6.51;72.21;100848.38;4861774;29;20458;-61
2021/11/29 02:04:05;;;;;;;2.70;2.50;;;;;;;-6.44;72.07;100855.88;4861889;29;20041;-62
2021/11/29 02:06:33;;;;;;;3.13;2.83;;;;;;;-6.38;72.27;100870.34;4862029;29;20649;-63
2021/11/29 02:08:59;;;;;;;2.88;2.58;;;;;;;-6.46;72.96;100841.28;4862087;29;20042;-67
2021/11/29 02:11:26;;;;;;;3.42;2.63;;;;;;;-6.91;72.64;100791.00;4862137;29;20053;-60
2021/11/29 02:14:12;;;;;;;2.58;2.38;;;;;;;-6.63;72.73;100847.91;4848740;29;20072;-63
2021/11/29 02:16:37;;;;;;;2.67;2.23;;;;;;;-6.61;72.47;100850.44;4861843;29;20521;-62
2021/11/29 02:19:05;;;;;;;3.23;3.03;;;;;;;-6.73;72.79;100835.28;4861805;29;20044;-61
2021/11/29 02:21:32;;;;;;;3.35;2.38;;;;;;;-6.74;72.23;100837.03;4862256;29;20117;-62
2021/11/29 02:24:03;;;;;;;3.38;2.42;;;;;;;-6.56;72.84;100869.25;4861567;29;20502;-61
2021/11/29 02:26:35;;;;;;;3.38;2.10;;;;;;;-6.71;73.17;100839.53;4862005;29;20037;-62
2021/11/29 02:29:15;;;;;;;2.38;2.20;;;;;;;-6.67;73.14;100856.66;4862965;29;20080;-64
2021/11/29 02:31:43;;;;;;;3.00;2.70;;;;;;;-6.60;73.23;100842.63;4863847;29;20037;-61
2021/11/29 02:34:12;;;;;;;2.10;1.98;;;;;;;-6.54;72.76;100846.75;4864638;29;20046;-62
2021/11/29 02:36:38;;;;;;;;;;;;;;;-6.46;72.24;100849.06;4864217;29;20041;-60
2021/11/29 02:39:06;;;;;;;2.43;2.23;;;;;;;-6.46;72.31;100843.88;4864045;29;20006;-62
2021/11/29 02:41:32;;;;;;;2.03;1.92;;;;;;;-6.37;72.61;100859.94;4863671;29;20041;-60
2021/11/29 02:43:58;;;;;;;2.40;2.20;;;;;;;-6.32;72.08;100845.09;4862181;29;20042;-62
2021/11/29 02:46:23;;;;;;;2.50;2.30;;;;;;;-6.64;73.44;100778.03;4861163;29;20085;-61
2021/11/29 02:48:51;;;;;;;2.63;2.43;;;;;;;-6.27;72.99;100819.03;4861214;29;20033;-64
2021/11/29 02:51:37;;;;;;;2.55;2.28;;;;;;;-6.05;72.17;100843.28;4861053;29;20049;-62
2021/11/29 02:54:08;;;;;;;3.05;2.60;;;;;;;-6.21;71.97;100812.75;4860545;29;20136;-61
2021/11/29 02:56:39;;;;;;;2.65;2.10;;;;;;;-6.18;71.77;100821.28;4860913;29;20045;-62
2021/11/29 02:59:16;;;;;;;2.97;2.78;;;;;;;-6.13;71.80;100816.75;4860941;29;20073;-60
2021/11/29 03:01:46;;;;;;;2.58;2.38;;;;;;;-6.08;71.89;100837.31;4860946;29;20069;-60
2021/11/29 03:04:12;;;;;;;2.65;2.45;;;;;;;-6.14;72.20;100843.59;4859636;29;20065;-61
2021/11/29 03:06:37;;;;;;;3.83;2.83;;;;;;;-6.40;71.77;100807.38;4860994;29;20498;-62
2021/11/29 03:09:05;;;;;;;3.10;2.80;;;;;;;-6.27;71.95;100847.53;4860732;29;20037;-61
2021/11/29 03:11:31;;;;;;;4.25;3.13;;;;;;;-6.35;72.64;100842.63;4860806;29;20510;-61
2021/11/29 03:13:57;;;;;;;2.75;2.55;;;;;;;-6.39;72.73;100834.97;4860723;29;20045;-60
2021/11/29 03:16:23;;;;;;;4.57;3.28;;;;;;;-6.46;72.32;100830.91;4860729;29;20033;-61
2021/11/29 03:18:49;;;;;;;4.07;3.73;;;;;;;-6.44;72.48;100829.13;4860690;29;20486;-60
2021/11/29 03:21:17;;;;;;;2.50;2.30;;;;;;;-6.41;72.75;100837.63;4859506;29;20038;-61
2021/11/29 03:23:45;;;;;;;2.70;2.38;;;;;;;-6.50;72.39;100829.34;4860618;29;20090;-60
2021/11/29 03:26:15;;;;;;;2.72;2.53;;;;;;;-6.58;72.33;100804.56;4860403;29;20041;-61
2021/11/29 03:28:42;;;;;;;3.17;2.85;;;;;;;-7.29;73.00;100706.03;4860268;29;20132;-60
2021/11/29 03:31:10;;;;;;;3.20;2.97;;;;;;;-6.43;72.56;100829.06;4860480;29;20614;-62
2021/11/29 03:33:37;;;;;;;2.70;2.50;;;;;;;-6.41;72.59;100829.00;4860436;29;20064;-61
2021/11/29 03:36:04;;;;;;;3.78;2.67;;;;;;;-6.48;72.18;100817.19;4860341;29;20029;-60
2021/11/29 03:38:30;;;;;;;2.60;2.40;;;;;;;-6.50;72.83;100827.59;4860893;29;20037;-60
2021/11/29 03:40:57;;;;;;;2.97;2.77;;;;;;;-6.65;72.05;100804.78;4860633;29;20072;-62
2021/11/29 03:43:23;;;;;;;3.05;2.78;;;;;;;-6.52;72.23;100823.38;4843689;29;20039;-62
2021/11/29 03:45:49;;;;;;;2.97;2.70;;;;;;;-6.56;72.64;100815.69;4860212;29;20042;-63
2021/11/29 03:48:15;;;;;;;2.90;2.70;;;;;;;-6.47;71.90;100826.63;4860331;29;20558;-64
2021/11/29 03:50:41;;;;;;;4.50;2.83;;;;;;;-6.48;71.79;100835.31;4860445;29;20064;-60
2021/11/29 03:53:06;;;;;;;2.93;2.73;;;;;;;-6.47;72.02;100829.22;4844500;29;20483;-62
2021/11/29 03:55:32;;;;;;;2.97;2.37;;;;;;;-6.53;71.64;100826.84;4845635;29;20120;-62
2021/11/29 03:57:58;;;;;;;2.70;2.50;;;;;;;-6.63;71.84;100816.81;4843966;29;20580;-61
2021/11/29 04:00:24;;;;;;;2.60;2.40;;;;;;;-6.59;70.60;100833.94;4859778;29;20148;-63
2021/11/29 04:02:49;;;;;;;2.90;2.70;;;;;;;-6.63;70.71;100814.22;4859507;29;20057;-62
2021/11/29 04:05:15;;;;;;;2.93;2.73;;;;;;;-6.66;71.08;100808.28;4859614;29;20290;-62
2021/11/29 04:07:41;;;;;;;2.90;2.67;;;;;;;-6.71;71.14;100802.41;4860751;29;20513;-60
2021/11/29 04:10:08;;;;;;;3.50;3.20;;;;;;;-6.68;70.86;100813.53;4861010;29;20079;-61
2021/11/29 04:12:34;;;;;;;2.92;2.22;;;;;;;-6.57;71.22;100821.78;4861425;29;20074;-62
2021/11/29 04:15:00;;;;;;;3.10;2.60;;;;;;;-6.52;71.17;100813.00;4862006;29;20034;-61
2021/11/29 04:17:26;;;;;;;2.37;2.20;;;;;;;-6.72;70.72;100765.31;4861047;29;20120;-62
2021/11/29 04:19:51;;;;;;;2.70;2.50;;;;;;;-6.42;70.88;100789.28;4859568;29;20033;-62
2021/11/29 04:22:17;;;;;;;3.27;3.07;;;;;;;-6.27;70.68;100809.50;4859674;29;20045;-62
2021/11/29 04:24:45;;;;;;;2.50;2.30;;;;;;;-6.29;70.68;100789.72;4859992;29;20037;-63
2021/11/29 04:27:11;;;;;;;2.88;2.67;;;;;;;-6.25;70.33;100794.72;4859830;29;20052;-64
2021/11/29 04:29:42;;;;;;;2.50;2.30;;;;;;;-6.35;70.69;100769.22;4860156;29;20037;-62
2021/11/29 04:32:08;;;;;;;2.47;2.28;;;;;;;-6.32;70.61;100784.66;4859590;29;20409;-61
2021/11/29 04:34:35;;;;;;;2.97;2.70;;;;;;;-6.33;71.14;100803.69;4859543;29;20049;-61
2021/11/29 04:37:04;;;;;;;3.20;2.92;;;;;;;-6.35;71.15;100790.78;4859798;29;20297;-60
2021/11/29 04:39:31;;;;;;;2.72;2.53;;;;;;;-6.46;71.26;100774.75;4859723;29;20049;-63
2021/11/29 04:41:57;;;;;;;5.57;2.83;;;;;;;-6.20;71.01;100804.94;4859374;29;20033;-62
2021/11/29 04:44:22;;;;;;;2.90;2.60;;;;;;;-6.22;71.25;100785.16;4859502;29;20038;-62
2021/11/29 04:46:48;;;;;;;3.37;3.07;;;;;;;-6.27;71.22;100778.41;4859315;29;20111;-61
2021/11/29 04:49:14;;;;;;;4.50;3.07;;;;;;;-6.16;71.46;100806.50;4859325;29;20046;-61
2021/11/29 04:51:39;;;;;;;3.70;3.40;;;;;;;-6.15;71.51;100808.19;4859332;29;20124;-61
2021/11/29 04:54:05;;;;;;;3.53;3.17;;;;;;;-6.38;71.45;100777.06;4860545;29;20034;-61
2021/11/29 04:56:31;;;;;;;3.07;2.77;;;;;;;-6.23;71.51;100792.09;4859554;29;20091;-62
2021/11/29 04:58:57;;;;;;;4.23;3.53;;;;;;;-6.29;70.90;100787.13;4859402;29;20042;-60
2021/11/29 05:01:23;;;;;;;2.70;2.50;;;;;;;-6.72;71.35;100718.69;4859688;29;20061;-60
2021/11/29 05:03:53;;;;;;;3.47;3.20;;;;;;;-6.21;70.84;100810.16;4859465;29;20041;-62
2021/11/29 05:06:19;;;;;;;3.85;3.30;;;;;;;-6.64;70.67;100763.31;4859361;29;20117;-61
2021/11/29 05:08:45;;;;;;;4.15;3.25;;;;;;;-6.31;71.31;100814.84;4859363;29;20042;-62
2021/11/29 05:11:11;;;;;;;3.75;3.33;;;;;;;-6.34;72.00;100812.38;4859202;29;20149;-63
2021/11/29 05:13:38;;;;;;;3.50;3.20;;;;;;;-6.45;71.13;100797.19;4858987;29;20049;-60
2021/11/29 05:16:04;;;;;;;6.77;3.90;;;;;;;-6.24;72.41;100829.28;4860398;29;20049;-61
2021/11/29 05:18:30;;;;;;;3.47;3.08;;;;;;;-6.17;70.61;100832.47;4862847;29;20294;-62
2021/11/29 05:20:56;;;;;;;4.03;3.73;;;;;;;-6.22;70.98;100837.00;4862784;29;20056;-62
2021/11/29 05:23:22;;;;;;;3.20;3.00;;;;;;;-6.29;70.80;100828.59;4862812;29;20490;-62
2021/11/29 05:25:47;;;;;;;4.73;3.03;;;;;;;-6.39;71.50;100809.91;4862475;29;20044;-60
2021/11/29 05:28:13;;;;;;;4.37;3.13;;;;;;;-6.40;70.69;100807.38;4862240;29;20049;-61
2021/11/29 05:30:39;;;;;;;4.80;2.60;;;;;;;-6.48;71.04;100806.81;4862331;29;20041;-63
2021/11/29 05:33:05;;;;;;;3.57;3.27;;;;;;;-6.44;71.63;100821.34;4862164;29;20049;-63
2021/11/29 05:35:32;;;;;;;5.87;3.60;;;;;;;-6.65;71.44;100810.84;4863022;29;20048;-61
2021/11/29 05:37:58;;;;;;;5.20;4.05;;;;;;;-6.60;71.47;100810.69;4862418;29;20045;-60
2021/11/29 05:40:23;;;;;;;3.10;2.90;;;;;;;-6.78;71.92;100775.91;4862309;29;20493;-62
2021/11/29 05:42:50;;;;;;;3.63;3.10;;;;;;;-6.61;71.77;100819.34;4862643;29;20582;-63
2021/11/29 05:45:16;;;;;;;7.88;3.45;;;;;;;-6.54;72.26;100820.00;4862078;29;20052;-61
2021/11/29 05:47:42;;;;;;;3.43;3.13;;;;;;;-6.53;71.36;100816.50;4862131;29;20041;-63
2021/11/29 05:50:09;;;;;;;2.90;2.70;;;;;;;-6.94;71.83;100748.81;4862277;29;20041;-66
2021/11/29 05:52:36;;;;;;;3.88;3.00;;;;;;;-6.48;72.12;100809.41;4862232;29;20490;-61
2021/11/29 05:55:02;;;;;;;3.53;2.97;;;;;;;-6.54;71.86;100796.66;4862510;29;20041;-62
2021/11/29 05:57:28;;;;;;;4.18;3.78;;;;;;;-6.56;71.60;100792.38;4862097;29;20045;-60
2021/11/29 05:59:54;;;;;;;5.07;3.37;;;;;;;-6.46;71.07;100830.91;4861889;29;20521;-62
2021/11/29 06:02:22;;;;;;;3.67;3.10;;;;;;;-6.34;71.33;100810.63;4861684;29;20085;-63
2021/11/29 06:04:49;;;;;;;2.67;2.42;;;;;;;-6.26;71.38;100799.97;4845349;29;20383;-62
2021/11/29 06:07:14;;;;;;;4.07;3.22;;;;;;;-6.77;71.30;100715.44;4861920;29;20057;-63
2021/11/29 06:09:40;;;;;;;3.63;3.10;;;;;;;-6.42;71.49;100772.91;4859515;29;20362;-68
2021/11/29 06:12:06;;;;;;;3.63;3.33;;;;;;;-6.63;71.38;100767.59;4861099;29;20040;-63
2021/11/29 06:14:32;;;;;;;3.97;3.08;;;;;;;-6.53;71.51;100775.88;4861025;29;20041;-62
2021/11/29 06:17:01;;;;;;;4.00;3.43;;;;;;;-6.43;72.22;100807.50;4861386;29;20410;-66
2021/11/29 06:19:26;;;;;;;3.15;2.90;;;;;;;-6.51;73.01;100773.25;4861865;29;20045;-62
2021/11/29 06:21:52;;;;;;;3.50;3.07;;;;;;;-6.48;73.62;100779.16;4861435;29;20120;-63
2021/11/29 06:24:18;;;;;;;3.90;3.37;;;;;;;-6.44;73.16;100780.72;4861321;29;20037;-66
2021/11/29 06:26:44;;;;;;;4.50;2.90;;;;;;;-6.44;73.68;100760.00;4861064;29;20059;-65
2021/11/29 06:29:10;;;;;;;3.20;2.90;;;;;;;-6.43;73.94;100766.03;4860875;29;20037;-66
2021/11/29 06:31:35;;;;;;;3.50;3.20;;;;;;;-6.41;74.28;100770.25;4844280;29;20045;-67
2021/11/29 06:34:01;;;;;;;3.50;3.20;;;;;;;-6.44;74.34;100779.88;4860167;29;20125;-71
2021/11/29 06:36:28;;;;;;;4.07;3.17;;;;;;;-6.48;75.44;100767.94;4861298;29;20038;-68
2021/11/29 06:38:57;;;;;;;3.15;2.90;;;;;;;-6.43;75.06;100768.63;4860967;29;20458;-70
2021/11/29 06:41:24;;;;;;;3.15;2.95;;;;;;;-6.47;75.24;100765.31;4845045;29;20076;-70
2021/11/29 06:43:50;;;;;;;4.55;4.18;;;;;;;-6.47;75.28;100759.28;4861152;29;20041;-66
2021/11/29 06:46:16;;;;;;;3.47;3.17;;;;;;;-6.59;76.38;100738.09;4861369;29;20045;-65
2021/11/29 06:48:42;;;;;;;2.80;2.60;;;;;;;-6.43;76.42;100766.03;4861136;29;20086;-66
2021/11/29 06:51:08;;;;;;;4.63;3.17;;;;;;;-6.49;76.11;100756.75;4861487;29;20041;-66
2021/11/29 06:53:34;;;;;;;3.33;3.03;;;;;;;-6.48;76.57;100744.63;4861067;29;20477;-68
2021/11/29 06:56:01;;;;;;;3.40;3.10;;;;;;;-6.31;76.29;100760.44;4861215;29;20277;-67
2021/11/29 06:58:27;;;;;;;3.60;3.22;;;;;;;-6.29;75.69;100756.88;4860749;29;20354;-66
2021/11/29 07:00:58;;;;;;;3.22;2.92;;;;;;;-6.30;76.53;100767.28;4844315;29;20069;-63
2021/11/29 07:03:24;;;;;;;3.47;3.05;;;;;;;-6.48;76.30;100726.50;4861022;29;20090;-63
2021/11/29 07:05:51;;;;;;;3.43;2.50;;;;;;;-6.50;76.65;100728.28;4860882;29;20045;-66
2021/11/29 07:08:18;;;;;;;3.30;3.00;;;;;;;-6.44;76.58;100728.06;4858247;29;20052;-68
2021/11/29 07:10:44;;;;;;;2.72;2.53;;;;;;;-6.30;76.84;100754.34;4860490;29;20085;-67
2021/11/29 07:13:11;;;;;;;3.28;2.90;;;;;;;-6.45;77.19;100723.78;4860741;29;20124;-69
2021/11/29 07:15:39;;;;;;;3.50;2.90;;;;;;;-6.15;76.64;100766.72;4860364;29;20046;-71
2021/11/29 07:18:06;;;;;;;4.63;3.05;;;;;;;-6.21;76.13;100732.41;4858765;29;20553;-67
2021/11/29 07:20:31;;;;;;;3.65;3.35;;;;;;;-6.41;75.88;100712.41;4860865;29;20057;-62
2021/11/29 07:22:58;;;;;;;3.10;2.90;;;;;;;-6.28;76.37;100731.81;4861254;29;20041;-73
2021/11/29 07:25:23;;;;;;;5.13;4.35;;;;;;;-6.47;76.90;100705.72;4859664;29;20037;-74
2021/11/29 07:27:49;;;;;;;3.07;2.83;;;;;;;-6.78;76.47;100650.75;4844122;29;20041;-67
2021/11/29 07:30:17;;;;;;;2.97;2.73;;;;;;;-6.19;76.47;100754.78;4860788;29;20046;-74
2021/11/29 07:32:43;;;;;;;4.03;3.20;;;;;;;-6.12;76.14;100758.81;4860537;29;20052;-70
2021/11/29 07:35:10;;;;;;;3.85;3.17;;;;;;;-6.11;76.40;100747.56;4860819;29;20045;-72
2021/11/29 07:37:36;;;;;;;3.70;2.83;;;;;;;-5.96;75.62;100757.34;4860222;29;20102;-68
2021/11/29 07:40:04;;;;;;;4.25;3.10;;;;;;;-6.13;76.12;100717.41;4860014;29;20128;-72
2021/11/29 07:42:30;;;;;;;4.43;2.97;;;;;;;-6.07;75.96;100720.63;4860781;29;20045;-66
2021/11/29 07:44:56;;;;;;;4.28;3.72;;;;;;;-6.10;76.65;100722.47;4860115;29;20053;-65
2021/11/29 07:47:25;;;;;;;4.43;3.43;;;;;;;-6.13;76.69;100692.31;4859608;29;20146;-62
2021/11/29 07:49:52;;;;;;;6.38;3.60;;;;;;;-5.88;76.60;100723.31;4859641;29;20088;-63
2021/11/29 07:52:18;;;;;;;3.92;3.42;;;;;;;-5.80;76.19;100704.84;4859842;29;20038;-66
2021/11/29 07:54:44;;;;;;;3.67;3.37;;;;;;;-5.78;76.46;100697.84;4859603;29;20595;-62
2021/11/29 07:57:12;;;;;;;13.10;4.35;;;;;;;-5.94;76.46;100672.56;4843911;29;20391;-62
2021/11/29 07:59:39;;;;;;;3.35;3.10;;;;;;;-5.77;75.79;100694.38;4843358;29;20052;-70
2021/11/29 08:02:06;;;;;;;4.03;3.60;;;;;;;-5.79;76.16;100675.41;4860641;29;20057;-67
2021/11/29 08:04:31;;;;;;;4.68;4.28;;;;;;;-5.80;75.28;100668.53;4843273;29;20049;-67
2021/11/29 08:06:57;;;;;;;5.83;3.40;;;;;;;-5.74;75.93;100683.88;4859432;29;20060;-65
2021/11/29 08:09:23;;;;;;;10.57;5.70;;;;;;;-5.69;75.50;100692.31;4860758;29;20037;-66
2021/11/29 08:11:48;;;;;;;13.80;7.00;;;;;;;-5.61;75.87;100701.47;4859893;29;20402;-68
2021/11/29 08:14:14;;;;;;;3.23;2.93;;;;;;;-5.71;75.12;100668.19;4859684;29;20536;-71
2021/11/29 08:16:41;;;;;;;3.17;2.88;;;;;;;-5.74;75.21;100657.94;4859694;29;20049;-68
2021/11/29 08:19:06;;;;;;;3.67;3.37;;;;;;;-5.54;75.22;100676.13;4859961;29;20109;-70
2021/11/29 08:21:32;;;;;;;3.73;2.93;;;;;;;-5.66;75.17;100642.91;4859668;29;20443;-71
2021/11/29 08:23:57;;;;;;;5.83;3.10;;;;;;;-5.45;74.67;100670.56;4842998;29;20443;-68
2021/11/29 08:26:23;;;;;;;4.20;3.23;;;;;;;-5.26;75.08;100669.78;4859963;29;20047;-66
2021/11/29 08:28:49;;;;;;;3.87;3.50;;;;;;;-5.34;73.69;100663.16;4858338;29;20093;-69
2021/11/29 08:31:15;;;;;;;4.37;2.70;;;;;;;-5.57;74.92;100633.88;4859381;29;20066;-68
2021/11/29 08:33:40;;;;;;;3.15;2.85;;;;;;;-5.56;73.58;100640.75;4859859;29;20128;-65
2021/11/29 08:36:06;;;;;;;3.30;3.00;;;;;;;-5.80;73.88;100601.09;4859102;29;20052;-66
2021/11/29 08:38:34;;;;;;;3.40;2.97;;;;;;;-6.08;74.33;100555.59;4842925;29;20041;-69
2021/11/29 08:41:00;;;;;;;5.13;4.53;;;;;;;-5.60;74.86;100658.22;4859267;29;20472;-66
2021/11/29 08:43:27;;;;;;;4.45;3.15;;;;;;;-5.69;74.29;100625.72;4859258;29;20069;-67
2021/11/29 08:45:53;;;;;;;3.05;2.85;;;;;;;-5.71;74.66;100627.53;4859378;29;20045;-65
2021/11/29 08:48:20;;;;;;;3.63;3.33;;;;;;;-5.74;74.94;100626.81;4859113;29;20041;-68
2021/11/29 08:50:49;;;;;;;3.92;2.92;;;;;;;-5.61;74.20;100627.97;4861787;29;20053;-65
2021/11/29 08:53:18;;;;;;;2.53;2.33;;;;;;;-5.73;74.45;100599.97;4863049;29;20037;-65
2021/11/29 08:55:44;;;;;;;3.05;2.80;;;;;;;-5.84;74.40;100590.00;4862569;29;20033;-66
2021/11/29 08:58:11;;;;;;;3.60;3.30;;;;;;;-5.68;74.47;100616.19;4846593;29;20048;-69
2021/11/29 09:00:38;;;;;;;2.72;2.53;;;;;;;-5.77;74.09;100616.56;4862942;29;20493;-63
2021/11/29 09:03:07;;;;;;;3.03;2.40;;;;;;;-5.69;74.04;100617.09;4862328;29;20461;-64
2021/11/29 09:05:34;;;;;;;2.78;2.58;;;;;;;-5.66;74.47;100622.16;4862366;29;20092;-68
2021/11/29 09:07:59;;;;;;;3.35;2.95;;;;;;;-5.65;74.28;100610.84;4846224;29;20036;-69
2021/11/29 09:10:25;;;;;;;2.93;2.43;;;;;;;-5.48;73.79;100634.38;4863999;29;20476;-70
2021/11/29 09:12:51;;;;;;;2.63;2.43;;;;;;;-5.63;73.88;100633.22;4862607;29;20042;-68
2021/11/29 09:15:18;;;;;;;4.30;2.97;;;;;;;-5.96;73.45;100570.66;4862665;29;20509;-67
2021/11/29 09:17:47;;;;;;;3.97;3.35;;;;;;;-5.72;73.07;100620.66;4862325;29;20061;-67
2021/11/29 09:20:16;;;;;;;2.60;2.40;;;;;;;-5.72;72.85;100627.59;4862451;29;20041;-67
2021/11/29 09:22:43;;;;;;;4.32;2.85;;;;;;;-5.76;72.88;100618.25;4862354;29;20137;-69
2021/11/29 09:25:09;;;;;;;3.03;2.83;;;;;;;-5.80;72.43;100617.50;4863229;29;20042;-71
2021/11/29 09:27:36;;;;;;;4.05;2.75;;;;;;;-5.78;72.94;100607.06;4862427;29;20033;-74
2021/11/29 09:30:05;;;;;;;2.95;2.67;;;;;;;-5.98;73.37;100577.66;4862905;29;20096;-73
2021/11/29 09:32:36;;;;;;;3.35;3.08;;;;;;;-5.80;72.51;100608.88;4845823;29;20067;-72
2021/11/29 09:35:03;;;;;;;3.28;2.97;;;;;;;-6.03;73.32;100558.84;4846169;29;20041;-74
2021/11/29 09:37:29;;;;;;;3.78;3.30;;;;;;;-6.00;72.71;100561.31;4862332;29;20498;-72
2021/11/29 09:39:55;;;;;;;3.17;2.83;;;;;;;-6.09;72.88;100530.56;4863164;29;20037;-71
2021/11/29 09:42:20;;;;;;;3.50;2.90;;;;;;;-5.83;73.34;100565.75;4861987;29;20030;-72
2021/11/29 09:44:51;;;;;;;3.33;2.80;;;;;;;-5.88;73.11;100538.34;4845390;29;20073;-68
2021/11/29 09:47:16;;;;;;;3.80;3.40;;;;;;;-5.61;72.70;100578.69;4862093;29;20037;-63
2021/11/29 09:49:42;;;;;;;3.63;3.33;;;;;;;-5.63;73.10;100557.16;4861986;29;20105;-67
2021/11/29 09:52:08;;;;;;;4.23;3.77;;;;;;;-6.54;72.70;100426.22;4862148;29;20101;-71
2021/11/29 09:54:33;;;;;;;4.00;3.60;;;;;;;-5.65;72.38;100553.78;4862433;29;20137;-65
2021/11/29 09:56:59;;;;;;;4.07;3.13;;;;;;;-5.64;72.15;100565.84;4845521;29;20478;-65
2021/11/29 09:59:26;;;;;;;5.10;3.50;;;;;;;-5.74;72.49;100572.34;4861620;29;20033;-73
2021/11/29 10:01:55;;;;;;;3.38;3.08;;;;;;;-5.83;71.71;100557.16;4860466;29;20510;-66
2021/11/29 10:04:23;;;;;;;3.20;2.90;;;;;;;-6.06;72.10;100514.06;4861702;29;20100;-66
2021/11/29 10:06:55;;;;;;;3.83;3.20;;;;;;;-5.90;72.06;100542.78;4861800;29;20090;-67
2021/11/29 10:09:46;;;;;;;4.03;3.30;;;;;;;-5.89;71.80;100529.72;4861782;29;20417;-71
2021/11/29 10:12:18;;;;;;;3.28;2.88;;;;;;;-6.03;71.40;100527.75;4857622;29;20042;-68
2021/11/29 10:15:22;;;;;;;3.92;2.85;;;;;;;-6.03;71.80;100526.91;4861483;29;20045;-75
2021/11/29 10:18:00;;;;;;;3.58;3.28;;;;;;;-6.12;71.63;100499.59;4861681;29;20470;-74
2021/11/29 10:20:30;;;;;;;3.80;3.30;;;;;;;-6.37;71.19;100441.91;4861496;29;20037;-65
2021/11/29 10:22:59;;;;;;;6.78;3.78;;;;;;;-6.08;71.79;100492.53;4845270;29;20038;-66
2021/11/29 10:25:25;;;;;;;;;;;;;;;-6.02;71.39;100490.53;4862529;29;20037;-73
2021/11/29 10:27:51;;;;;;;3.93;3.37;;;;;;;-6.27;71.28;100472.56;4860438;29;19924;-67
2021/11/29 10:30:19;;;;;;;3.03;2.83;;;;;;;-6.11;71.41;100498.69;4861216;29;20038;-63
2021/11/29 10:32:47;;;;;;;3.63;3.15;;;;;;;-6.18;71.22;100492.06;4860931;29;20266;-68
2021/11/29 10:35:22;;;;;;;3.15;2.85;;;;;;;-6.28;71.55;100462.28;4860920;29;20045;-68
2021/11/29 10:37:49;;;;;;;3.45;3.10;;;;;;;-6.17;71.00;100485.16;4861150;29;20042;-64
2021/11/29 10:40:19;;;;;;;3.50;3.05;;;;;;;-6.31;70.54;100462.41;4861851;29;20077;-64
2021/11/29 10:42:44;;;;;;;5.15;3.40;;;;;;;-6.41;71.40;100443.78;4829893;29;20490;-68
2021/11/29 10:45:20;;;;;;;3.97;3.20;;;;;;;-6.21;71.61;100461.09;4861110;29;20048;-64
2021/11/29 10:47:52;;;;;;;3.50;3.00;;;;;;;-6.11;71.76;100470.16;4861439;29;20044;-65
2021/11/29 10:50:23;;;;;;;4.38;3.28;;;;;;;-6.05;71.02;100467.34;4860761;29;20056;-69
2021/11/29 10:52:49;;;;;;;6.45;3.17;;;;;;;-6.12;71.35;100455.53;4843257;29;20033;-69
2021/11/29 10:55:15;;;;;;;3.63;3.23;;;;;;;-5.97;70.69;100448.84;4860957;29;20050;-65
2021/11/29 10:57:47;;;;;;;4.00;3.57;;;;;;;-5.94;70.97;100456.50;4860228;29;20049;-70
2021/11/29 11:00:16;;;;;;;3.20;3.00;;;;;;;-6.10;70.52;100437.31;4860141;29;20129;-64
2021/11/29 11:03:00;;;;;;;3.20;3.00;;;;;;;-6.04;71.25;100435.31;4860579;29;20113;-66
2021/11/29 11:05:27;;;;;;;3.30;3.00;;;;;;;-6.11;70.86;100428.69;4844686;29;20498;-77
2021/11/29 11:07:52;;;;;;;4.35;3.95;;;;;;;-5.92;70.82;100449.50;4860345;29;20390;-64
2021/11/29 11:10:20;;;;;;;3.73;3.27;;;;;;;-5.99;70.51;100430.78;4860547;29;20086;-64
2021/11/29 11:12:47;;;;;;;3.85;2.55;;;;;;;-6.11;70.55;100426.09;4860037;29;20048;-66
2021/11/29 11:15:18;;;;;;;4.38;3.25;;;;;;;-6.16;70.32;100407.31;4860067;29;20033;-65
2021/11/29 11:17:52;;;;;;;3.47;3.17;;;;;;;-6.14;70.33;100397.72;4860657;29;20038;-63
2021/11/29 11:20:18;;;;;;;4.18;3.80;;;;;;;-6.20;71.72;100372.06;4860050;29;20057;-64
2021/11/29 11:22:57;;;;;;;3.30;3.00;;;;;;;-6.54;71.13;100340.75;4860116;29;20048;-61
2021/11/29 11:25:30;;;;;;;3.47;3.17;;;;;;;-6.22;71.41;100392.03;4860215;29;20120;-67
2021/11/29 11:28:00;;;;;;;3.30;3.00;;;;;;;-6.06;71.12;100403.44;4860655;29;20451;-70